Delran Township, New Jersey
Current Conditions -  °F | °C
As of 5:54 PM on Thursday 27 Nov 2014 (Local Time) from KPNE Reporting Station
Clear Clear  
Wind Chill: 31°   Ceiling: Unl
Heat Index: 36°   Visibility: 10mi
Dew Point: 26°   Wind: 6mph
Humidity: 67%   Direction: 280°W
Pressure: 30.07"   Gusts: NA
Location:  40.0192°N, 74.9489°W
Report Text: KPNE 272254Z AUTO 28005KT 10SM CLR 02/M03 A3007 RMK AO2 SLP184 T00221033 TSNO
Loading
Personal Weather Stations






























Interactive Weather Map New forecast layout! Learn more

10-Day Weather Forecast

Advertisements
Track Severe Weather on mobile